Time;durP1;ratioP1;P1;durP2;ratioP2;P2;SDS_P1;SDS_P2;PMS_P1;PMS_P2;Temp;Humidity;BMP_temperature;BMP_pressure;BME280_temperature;BME280_humidity;BME280_pressure;Samples;Min_cycle;Max_cycle;Signal;HPM_P1;HPM_P2
2022/11/13 00:02:38;;;;;;;52.50;30.65;;;;;;;3.01;76.61;102806.00;1714171;83;25720;-61
2022/11/13 00:05:24;;;;;;;50.25;27.52;;;;;;;2.98;76.51;102810.47;1714356;83;25743;-61
2022/11/13 00:08:10;;;;;;;57.83;30.57;;;;;;;2.93;76.35;102800.42;1714069;83;27495;-60
2022/11/13 00:11:17;;;;;;;73.30;31.57;;;;;;;2.91;76.45;102805.36;1714486;83;27289;-62
2022/11/13 00:14:02;;;;;;;50.73;28.87;;;;;;;2.86;76.53;102802.81;1714270;83;25721;-61
2022/11/13 00:16:47;;;;;;;57.80;32.63;;;;;;;2.78;76.25;102809.63;1714653;83;25780;-61
2022/11/13 00:19:33;;;;;;;51.30;30.08;;;;;;;2.72;76.36;102808.88;1721314;83;25717;-61
2022/11/13 00:22:19;;;;;;;50.88;29.70;;;;;;;2.64;76.22;102800.63;1722383;83;28385;-61
2022/11/13 00:25:05;;;;;;;43.05;29.05;;;;;;;2.59;76.10;102805.19;1722149;83;25796;-61
2022/11/13 00:27:51;;;;;;;47.00;28.15;;;;;;;2.55;76.09;102805.30;1684679;84;25820;-61
2022/11/13 00:30:36;;;;;;;46.90;29.00;;;;;;;2.52;76.20;102806.20;1694671;84;25821;-61
2022/11/13 00:33:21;;;;;;;46.53;29.02;;;;;;;2.52;76.32;102805.34;1684096;85;25508;-61
2022/11/13 00:36:14;;;;;;;43.85;26.90;;;;;;;2.49;76.41;102811.14;1684204;85;28414;-61
2022/11/13 00:38:59;;;;;;;51.08;28.50;;;;;;;2.45;76.48;102807.25;1684083;85;25804;-62
2022/11/13 00:41:44;;;;;;;46.02;26.87;;;;;;;2.45;76.74;102808.15;1684372;85;25551;-61
2022/11/13 00:44:29;;;;;;;42.88;27.80;;;;;;;2.47;77.03;102816.08;1684396;85;25893;-61
2022/11/13 00:47:14;;;;;;;42.03;26.27;;;;;;;2.45;76.89;102812.57;1684206;84;25539;-61
2022/11/13 00:49:59;;;;;;;43.78;26.20;;;;;;;2.43;76.94;102811.28;1684378;85;27569;-62
2022/11/13 00:52:45;;;;;;;39.98;26.37;;;;;;;2.42;77.11;102817.50;1682544;84;27260;-62
2022/11/13 00:55:31;;;;;;;43.30;26.68;;;;;;;2.42;77.31;102816.64;1655885;86;25856;-62
2022/11/13 00:58:17;;;;;;;44.23;25.80;;;;;;;2.46;77.33;102812.99;1655864;86;26005;-62
2022/11/13 01:01:07;;;;;;;40.83;26.02;;;;;;;2.50;77.40;102812.03;1655774;86;25930;-62
2022/11/13 01:03:52;;;;;;;40.05;25.68;;;;;;;2.52;77.37;102806.20;1655621;86;27566;-61
2022/11/13 01:06:38;;;;;;;43.00;27.93;;;;;;;2.51;77.14;102805.78;1655569;86;25520;-61
2022/11/13 01:09:23;;;;;;;42.78;26.23;;;;;;;2.50;77.19;102798.28;1652014;85;25504;-61
2022/11/13 01:12:08;;;;;;;39.13;23.83;;;;;;;2.50;77.26;102795.63;1647325;87;26099;-62
2022/11/13 01:14:53;;;;;;;35.70;24.47;;;;;;;2.47;77.27;102801.46;1647234;87;26011;-62
2022/11/13 01:17:39;;;;;;;33.88;23.65;;;;;;;2.45;77.22;102804.16;1648322;85;29621;-62
2022/11/13 01:20:25;;;;;;;42.83;27.15;;;;;;;2.46;77.32;102806.35;1647232;86;25805;-62
2022/11/13 01:23:10;;;;;;;43.65;25.08;;;;;;;2.41;77.05;102806.45;1647181;87;25834;-62
2022/11/13 01:26:12;;;;;;;37.13;23.57;;;;;;;2.44;77.24;102803.73;1647503;87;26098;-61
2022/11/13 01:28:58;;;;;;;40.70;24.35;;;;;;;2.39;76.79;102810.91;1647171;87;25825;-61
2022/11/13 01:31:44;;;;;;;43.35;25.32;;;;;;;2.31;76.60;102798.25;1647272;87;26928;-62
2022/11/13 01:34:29;;;;;;;49.67;26.55;;;;;;;2.22;76.60;102801.09;1647200;87;25554;-62
2022/11/13 01:37:14;;;;;;;47.48;27.80;;;;;;;2.14;76.59;102801.28;1647320;87;25769;-61
2022/11/13 01:39:59;;;;;;;48.98;27.25;;;;;;;2.08;76.70;102791.66;1647393;87;26266;-62
2022/11/13 01:42:44;;;;;;;49.03;26.45;;;;;;;2.03;76.74;102794.41;1647561;87;25999;-62
2022/11/13 01:46:14;;;;;;;43.60;25.55;;;;;;;1.99;76.75;102797.15;1647201;87;27400;-61
2022/11/13 01:49:04;;;;;;;43.15;25.72;;;;;;;1.98;76.89;102796.26;1658341;85;25791;-61
2022/11/13 01:51:55;;;;;;;50.95;29.15;;;;;;;2.01;77.47;102795.34;1683816;84;25772;-62
2022/11/13 01:54:50;;;;;;;46.02;25.68;;;;;;;1.98;77.36;102794.06;1673698;84;27132;-62
2022/11/13 01:57:36;;;;;;;48.65;26.48;;;;;;;1.97;77.53;102794.50;1699964;83;25781;-62
2022/11/13 02:00:22;;;;;;;40.08;24.57;;;;;;;2.02;77.98;102797.95;1686524;85;27519;-62
2022/11/13 02:03:07;;;;;;;41.18;25.60;;;;;;;2.09;78.23;102791.19;1699498;84;25834;-61
2022/11/13 02:05:53;;;;;;;42.70;24.98;;;;;;;2.14;78.31;102789.33;1686746;85;25683;-62
2022/11/13 02:08:39;;;;;;;43.13;23.38;;;;;;;2.18;78.32;102785.25;1699641;84;26121;-62
2022/11/13 02:11:25;;;;;;;37.45;24.35;;;;;;;2.23;78.33;102782.94;1686462;85;25974;-62
2022/11/13 02:14:13;;;;;;;44.63;24.50;;;;;;;2.22;78.48;102782.52;1699611;84;27448;-62
2022/11/13 02:17:04;;;;;;;38.33;24.63;;;;;;;2.27;78.80;102779.33;1686427;85;25739;-62
2022/11/13 02:19:54;;;;;;;48.63;25.57;;;;;;;2.28;78.74;102779.75;1699437;84;25753;-62
2022/11/13 02:22:48;;;;;;;43.13;25.88;;;;;;;2.30;78.88;102780.13;1666270;85;26192;-62
2022/11/13 02:25:35;;;;;;;43.70;25.50;;;;;;;2.35;79.03;102787.53;1699695;84;25638;-62
2022/11/13 02:28:20;;;;;;;40.43;24.77;;;;;;;2.39;79.00;102794.98;1686732;85;28663;-62
2022/11/13 02:31:08;;;;;;;50.17;25.70;;;;;;;2.41;79.18;102790.52;1699263;84;25885;-62
2022/11/13 02:33:53;;;;;;;42.43;24.55;;;;;;;2.42;79.00;102799.37;1685948;85;25674;-62
2022/11/13 02:36:38;;;;;;;39.33;24.57;;;;;;;2.39;78.88;102796.30;1699519;84;26100;-61
2022/11/13 02:39:23;;;;;;;35.70;22.20;;;;;;;2.38;78.93;102803.84;1686481;85;25732;-61
2022/11/13 02:42:09;;;;;;;37.88;23.27;;;;;;;2.36;78.87;102800.38;1699516;84;27509;-61
2022/11/13 02:44:54;;;;;;;36.88;23.35;;;;;;;2.37;79.05;102794.59;1686379;85;25787;-61
2022/11/13 02:47:39;;;;;;;39.88;22.87;;;;;;;2.41;79.24;102787.00;1699469;84;25756;-61
2022/11/13 02:50:25;;;;;;;39.67;23.62;;;;;;;2.41;79.01;102789.19;1667957;85;26123;-61
2022/11/13 02:53:10;;;;;;;35.05;22.98;;;;;;;2.38;78.68;102784.39;1671852;84;25555;-61
2022/11/13 02:55:55;;;;;;;38.58;23.92;;;;;;;2.40;78.87;102791.88;1709046;83;27643;-61
2022/11/13 02:58:41;;;;;;;43.33;23.57;;;;;;;2.38;78.58;102801.66;1706675;83;25491;-61
2022/11/13 03:01:26;;;;;;;38.08;23.67;;;;;;;2.34;78.38;102799.06;1677795;85;26441;-61
2022/11/13 03:04:11;;;;;;;34.00;23.90;;;;;;;2.33;78.58;102797.77;1707029;83;26213;-61
2022/11/13 03:06:56;;;;;;;35.80;23.40;;;;;;;2.35;78.81;102802.61;1679117;85;25733;-61
2022/11/13 03:09:42;;;;;;;35.05;23.10;;;;;;;2.33;78.57;102809.73;1706801;83;28338;-61
2022/11/13 03:12:28;;;;;;;33.38;22.17;;;;;;;2.29;78.51;102807.59;1678488;85;25549;-61
2022/11/13 03:15:13;;;;;;;46.42;24.55;;;;;;;2.22;78.28;102801.09;1741972;81;25763;-61
2022/11/13 03:18:04;;;;;;;43.00;23.77;;;;;;;2.17;78.42;102798.11;1744055;81;26147;-61
2022/11/13 03:20:52;;;;;;;43.05;25.15;;;;;;;2.16;78.44;102800.77;1752520;81;25992;-61
2022/11/13 03:23:37;;;;;;;42.15;23.57;;;;;;;2.11;78.03;102798.67;1752521;81;27578;-61
2022/11/13 03:26:22;;;;;;;40.23;24.92;;;;;;;2.05;77.83;102790.84;1752402;81;26139;-61
2022/11/13 03:29:08;;;;;;;37.23;25.25;;;;;;;1.98;77.86;102794.92;1752588;81;25681;-61
2022/11/13 03:31:53;;;;;;;47.75;25.15;;;;;;;1.96;77.74;102801.18;1752450;81;26739;-61
2022/11/13 03:34:38;;;;;;;38.05;24.77;;;;;;;1.90;77.59;102801.31;1752525;81;27261;-61
2022/11/13 03:37:24;;;;;;;37.90;23.83;;;;;;;1.78;77.25;102800.63;1752574;81;27568;-61
2022/11/13 03:40:10;;;;;;;40.25;23.47;;;;;;;1.73;77.25;102802.52;1752370;81;25948;-61
2022/11/13 03:42:55;;;;;;;39.67;24.65;;;;;;;1.69;77.40;102803.45;1752465;81;25793;-61
2022/11/13 03:45:46;;;;;;;35.15;21.73;;;;;;;1.68;77.59;102801.27;1752391;81;26095;-61
2022/11/13 03:48:32;;;;;;;34.67;22.48;;;;;;;1.68;77.87;102798.63;1748812;81;25756;-62
2022/11/13 03:51:17;;;;;;;35.85;21.87;;;;;;;1.68;78.06;102805.25;1714183;83;28291;-61
2022/11/13 03:54:03;;;;;;;34.65;22.55;;;;;;;1.64;77.97;102807.52;1714012;83;25706;-62
2022/11/13 03:56:48;;;;;;;33.90;20.27;;;;;;;1.64;78.15;102815.95;1714167;83;25678;-62
2022/11/13 03:59:34;;;;;;;33.80;20.68;;;;;;;1.64;78.32;102810.64;1714393;83;26038;-61
2022/11/13 04:02:19;;;;;;;34.05;21.40;;;;;;;1.60;78.33;102807.61;1714306;83;25778;-62
2022/11/13 04:05:07;;;;;;;30.23;21.20;;;;;;;1.59;78.39;102805.85;1714457;83;29670;-62
2022/11/13 04:07:52;;;;;;;31.17;20.60;;;;;;;1.64;78.63;102807.98;1714181;83;25742;-62
2022/11/13 04:10:37;;;;;;;33.05;20.92;;;;;;;1.63;78.40;102800.46;1714206;82;25898;-62
2022/11/13 04:13:22;;;;;;;29.12;18.90;;;;;;;1.66;78.63;102807.52;1714633;83;26970;-62
2022/11/13 04:16:08;;;;;;;34.30;21.50;;;;;;;1.69;78.64;102807.00;1714521;83;25503;-62
2022/11/13 04:18:54;;;;;;;29.35;20.05;;;;;;;1.69;78.59;102803.45;1714617;83;27379;-62
2022/11/13 04:21:39;;;;;;;32.00;20.90;;;;;;;1.71;78.72;102804.31;1714415;83;25800;-62
2022/11/13 04:24:24;;;;;;;32.42;20.40;;;;;;;1.73;78.67;102807.82;1714643;83;25671;-61
2022/11/13 04:27:09;;;;;;;31.62;21.85;;;;;;;1.71;78.56;102801.19;1714293;83;26177;-62
2022/11/13 04:29:55;;;;;;;32.28;20.75;;;;;;;1.70;78.46;102798.11;1714674;83;25794;-62
2022/11/13 04:32:39;;;;;;;32.17;20.82;;;;;;;1.72;78.53;102799.44;1714392;83;28373;-61
2022/11/13 04:35:25;;;;;;;34.60;19.82;;;;;;;1.71;78.39;102803.84;1714408;83;25771;-62
2022/11/13 04:38:10;;;;;;;35.30;21.25;;;;;;;1.74;78.57;102808.25;1714660;83;25696;-61
2022/11/13 04:43:59;;;;;;;37.65;22.58;;;;;;;1.68;78.36;102812.32;1714868;83;25776;-61
2022/11/13 04:46:44;;;;;;;37.15;21.42;;;;;;;1.69;78.46;102812.31;1714459;83;27464;-61
2022/11/13 04:49:30;;;;;;;33.73;23.25;;;;;;;1.65;78.05;102812.39;1714133;83;25843;-62
2022/11/13 04:52:15;;;;;;;48.28;26.10;;;;;;;1.61;78.02;102806.70;1684006;85;25793;-61
2022/11/13 04:55:00;;;;;;;34.13;21.45;;;;;;;1.58;77.96;102802.34;1674519;85;26114;-61
2022/11/13 04:57:46;;;;;;;35.10;21.50;;;;;;;1.53;77.67;102801.53;1668650;84;25840;-61
2022/11/13 05:00:31;;;;;;;34.43;22.37;;;;;;;1.48;77.53;102802.08;1684191;84;27517;-61
2022/11/13 05:03:17;;;;;;;35.10;21.15;;;;;;;1.45;77.57;102800.36;1684226;85;25776;-61
2022/11/13 05:06:07;;;;;;;39.83;22.98;;;;;;;1.43;77.77;102803.48;1684204;85;25830;-62
2022/11/13 05:08:54;;;;;;;26.60;19.10;;;;;;;1.41;77.86;102803.95;1676018;85;25834;-63
2022/11/13 05:11:40;;;;;;;38.45;19.50;;;;;;;1.39;77.96;102801.34;1707896;84;25753;-62
2022/11/13 05:14:27;;;;;;;34.85;21.87;;;;;;;1.38;78.04;102799.58;1708091;84;26025;-61
2022/11/13 05:17:14;;;;;;;33.35;21.15;;;;;;;1.37;78.08;102804.92;1685808;84;25326;-62
2022/11/13 05:20:00;;;;;;;42.80;22.42;;;;;;;1.36;78.07;102808.47;1716080;82;25930;-62
2022/11/13 05:22:45;;;;;;;34.53;21.40;;;;;;;1.39;78.38;102811.95;1678405;85;26126;-61
2022/11/13 05:25:31;;;;;;;36.48;20.35;;;;;;;1.44;78.48;102810.97;1752296;81;25790;-61
2022/11/13 05:28:17;;;;;;;30.80;21.02;;;;;;;1.50;78.66;102814.87;1751918;81;27462;-61
2022/11/13 05:31:09;;;;;;;30.00;20.52;;;;;;;1.58;78.77;102820.02;1752181;81;25811;-61
2022/11/13 05:33:54;;;;;;;30.55;20.43;;;;;;;1.62;78.83;102813.77;1751972;81;25659;-61
2022/11/13 05:36:39;;;;;;;31.68;18.55;;;;;;;1.66;78.77;102815.48;1738362;81;26102;-61
2022/11/13 05:39:24;;;;;;;38.85;20.88;;;;;;;1.70;78.66;102820.67;1724064;83;25659;-61
2022/11/13 05:42:09;;;;;;;32.03;20.10;;;;;;;1.77;78.86;102827.21;1723680;83;27518;-61
2022/11/13 05:44:54;;;;;;;32.03;20.55;;;;;;;1.82;78.74;102830.64;1723796;83;25719;-61
2022/11/13 05:47:39;;;;;;;33.40;19.80;;;;;;;1.90;78.90;102835.81;1723637;83;25786;-61
2022/11/13 05:50:24;;;;;;;35.38;20.40;;;;;;;1.95;78.74;102835.27;1719264;83;26144;-61
2022/11/13 05:53:09;;;;;;;33.75;18.98;;;;;;;2.02;78.90;102831.58;1719892;82;26861;-62
2022/11/13 05:56:03;;;;;;;36.23;20.90;;;;;;;2.11;79.03;102835.85;1723985;83;27501;-61
2022/11/13 05:58:50;;;;;;;30.08;18.42;;;;;;;2.16;78.70;102836.62;1703604;84;25784;-62
2022/11/13 06:01:38;;;;;;;37.03;22.22;;;;;;;2.24;78.79;102835.15;1699353;83;25715;-61
2022/11/13 06:04:23;;;;;;;38.60;22.13;;;;;;;2.28;78.65;102831.07;1699229;84;26072;-61
2022/11/13 06:07:11;;;;;;;44.35;24.25;;;;;;;2.32;78.60;102834.53;1698893;83;25926;-63
2022/11/13 06:09:56;;;;;;;45.52;24.70;;;;;;;2.34;78.43;102826.95;1699074;84;26923;-63
2022/11/13 06:12:43;;;;;;;45.95;23.70;;;;;;;2.38;78.45;102831.73;1699047;84;26138;-61
2022/11/13 06:15:28;;;;;;;48.58;25.17;;;;;;;2.39;78.23;102832.63;1655502;86;25512;-61
2022/11/13 06:18:14;;;;;;;51.92;27.70;;;;;;;2.40;78.19;102826.42;1702789;83;26088;-61
2022/11/13 06:21:04;;;;;;;52.50;25.90;;;;;;;2.42;78.38;102820.16;1699315;84;25968;-61
2022/11/13 06:23:50;;;;;;;52.65;26.25;;;;;;;2.47;78.34;102820.92;1699138;84;27546;-61
2022/11/13 06:26:35;;;;;;;45.73;25.60;;;;;;;2.52;78.33;102822.62;1699140;84;26011;-61
2022/11/13 06:29:21;;;;;;;49.03;28.83;;;;;;;2.54;78.50;102823.00;1699359;83;26289;-61
2022/11/13 06:32:06;;;;;;;48.83;28.73;;;;;;;2.63;78.64;102812.64;1699056;84;26107;-61
2022/11/13 06:34:51;;;;;;;47.20;27.80;;;;;;;2.71;78.73;102815.99;1699342;84;25725;-61
2022/11/13 06:37:36;;;;;;;46.53;27.90;;;;;;;2.82;79.06;102815.73;1699430;84;27574;-62
2022/11/13 06:40:21;;;;;;;48.87;27.95;;;;;;;2.93;79.46;102815.04;1699066;84;25792;-62
2022/11/13 06:43:06;;;;;;;50.63;27.13;;;;;;;3.06;79.66;102809.41;1699304;83;25814;-61
2022/11/13 06:45:52;;;;;;;48.58;28.77;;;;;;;3.20;80.10;102813.95;1699253;84;26115;-61
2022/11/13 06:48:37;;;;;;;51.98;28.95;;;;;;;3.34;80.44;102814.94;1697517;84;26128;-61
2022/11/13 06:51:27;;;;;;;56.00;28.62;;;;;;;3.47;80.46;102810.18;1651540;86;27545;-61
2022/11/13 06:54:12;;;;;;;54.80;29.42;;;;;;;3.64;80.82;102804.39;1684352;84;25716;-61
2022/11/13 06:56:57;;;;;;;55.65;28.77;;;;;;;3.79;80.87;102808.44;1752300;81;25957;-62
2022/11/13 06:59:43;;;;;;;50.00;29.67;;;;;;;3.95;80.96;102803.56;1752303;81;26771;-62
2022/11/13 07:02:28;;;;;;;50.60;29.72;;;;;;;4.09;81.05;102800.52;1752665;81;25770;-63
2022/11/13 07:05:13;;;;;;;49.80;29.42;;;;;;;4.22;81.15;102805.02;1752289;81;27037;-62
2022/11/13 07:07:58;;;;;;;55.43;29.67;;;;;;;4.37;81.08;102804.56;1752115;81;26495;-62
2022/11/13 07:10:45;;;;;;;52.88;28.65;;;;;;;4.53;81.13;102804.09;1750612;81;25754;-62
2022/11/13 07:13:31;;;;;;;50.60;28.52;;;;;;;4.67;81.11;102801.89;1701991;83;26275;-61
2022/11/13 07:16:17;;;;;;;53.65;30.43;;;;;;;4.82;80.93;102798.31;1672230;85;25823;-61
2022/11/13 07:19:03;;;;;;;56.45;29.80;;;;;;;4.95;80.83;102794.35;1701735;84;27400;-62
2022/11/13 07:21:50;;;;;;;59.10;30.25;;;;;;;5.12;80.99;102788.92;1712217;83;26315;-62
2022/11/13 07:24:35;;;;;;;59.25;30.00;;;;;;;5.28;80.87;102788.81;1712304;82;25759;-62
2022/11/13 07:27:22;;;;;;;66.02;30.10;;;;;;;5.44;80.75;102784.27;1712383;83;26094;-62
2022/11/13 07:30:09;;;;;;;49.90;28.40;;;;;;;5.63;80.80;102792.05;1712071;83;25831;-61
2022/11/13 07:32:54;;;;;;;52.50;29.48;;;;;;;5.81;80.51;102774.96;1712244;83;27522;-62
2022/11/13 07:35:39;;;;;;;54.98;28.83;;;;;;;5.94;80.16;102772.71;1712072;83;25879;-62
2022/11/13 07:38:24;;;;;;;53.15;28.62;;;;;;;6.05;79.78;102780.38;1711788;83;26007;-62
2022/11/13 07:41:09;;;;;;;59.73;29.37;;;;;;;6.17;79.56;102783.91;1712176;83;26189;-62
2022/11/13 07:44:00;;;;;;;48.02;28.60;;;;;;;6.36;79.83;102777.41;1712169;83;25792;-61
2022/11/13 07:46:45;;;;;;;59.58;29.37;;;;;;;6.57;79.93;102777.03;1712177;83;27554;-63
2022/11/13 07:49:32;;;;;;;54.90;29.45;;;;;;;6.75;79.48;102774.56;1697674;83;25879;-63
2022/11/13 07:52:17;;;;;;;54.85;29.30;;;;;;;6.89;78.49;102771.33;1683646;85;25931;-62
2022/11/13 07:55:03;;;;;;;48.85;28.67;;;;;;;6.96;77.85;102771.47;1683516;85;26146;-62
2022/11/13 07:57:49;;;;;;;57.08;28.87;;;;;;;7.06;76.92;102773.28;1683601;85;25734;-62
2022/11/13 08:00:35;;;;;;;52.70;29.48;;;;;;;7.20;76.51;102772.25;1683360;85;27521;-62
2022/11/13 08:03:20;;;;;;;54.83;30.77;;;;;;;7.37;76.79;102774.67;1683601;85;25740;-62
2022/11/13 08:06:07;;;;;;;55.83;31.20;;;;;;;7.47;75.74;102772.01;1683592;84;25738;-62
2022/11/13 08:08:53;;;;;;;66.17;32.03;;;;;;;7.55;75.54;102770.80;1683340;85;26159;-62
2022/11/13 08:11:38;;;;;;;55.10;29.32;;;;;;;7.62;75.12;102770.92;1679572;84;25860;-62
2022/11/13 08:14:23;;;;;;;46.77;28.30;;;;;;;7.66;74.56;102770.72;1668206;86;27474;-62
2022/11/13 08:17:09;;;;;;;53.35;29.18;;;;;;;7.78;74.89;102765.28;1668245;85;25689;-62
2022/11/13 08:19:54;;;;;;;49.15;27.20;;;;;;;7.90;74.71;102765.67;1703096;83;25847;-62
2022/11/13 08:22:44;;;;;;;55.05;27.35;;;;;;;7.98;74.15;102762.17;1704327;84;26112;-62
2022/11/13 08:25:31;;;;;;;53.95;27.00;;;;;;;8.05;74.07;102761.42;1675940;85;25876;-62
2022/11/13 08:28:18;;;;;;;48.35;26.50;;;;;;;8.11;73.92;102764.67;1704385;84;27564;-62
2022/11/13 08:31:04;;;;;;;54.80;28.30;;;;;;;8.14;73.49;102764.54;1704135;83;25870;-61
2022/11/13 08:33:49;;;;;;;54.58;27.42;;;;;;;8.20;73.33;102766.55;1675905;85;25695;-62
2022/11/13 08:36:34;;;;;;;43.63;25.65;;;;;;;8.30;73.53;102761.13;1704178;84;26144;-62
2022/11/13 08:39:23;;;;;;;46.28;25.10;;;;;;;8.42;73.15;102760.56;1703766;84;25650;-62
2022/11/13 08:42:15;;;;;;;47.38;25.50;;;;;;;8.54;72.72;102755.11;1675784;85;27535;-62
2022/11/13 08:45:00;;;;;;;48.02;27.70;;;;;;;8.68;72.64;102755.78;1703986;84;26061;-62
2022/11/13 08:47:48;;;;;;;53.65;28.38;;;;;;;8.86;72.63;102754.47;1704216;84;25745;-62
2022/11/13 08:50:37;;;;;;;67.70;28.30;;;;;;;8.99;72.75;102749.36;1631456;85;26155;-62
2022/11/13 08:53:26;;;;;;;51.63;27.77;;;;;;;9.18;72.65;102749.31;1683646;84;25760;-62
2022/11/13 08:56:15;;;;;;;48.30;25.60;;;;;;;9.30;71.86;102752.69;1683811;83;25954;-62
2022/11/13 08:59:04;;;;;;;54.67;28.47;;;;;;;9.29;70.96;102754.98;1652024;86;25984;-62
2022/11/13 09:01:52;;;;;;;51.98;28.10;;;;;;;9.30;70.45;102752.69;1714451;83;25669;-62
2022/11/13 09:04:37;;;;;;;50.52;27.52;;;;;;;9.29;70.63;102754.98;1712127;83;26765;-62
2022/11/13 09:07:22;;;;;;;48.70;28.70;;;;;;;9.34;70.57;102756.08;1711914;83;25766;-62
2022/11/13 09:10:07;;;;;;;49.18;26.65;;;;;;;9.32;70.36;102751.29;1714376;83;27490;-62
2022/11/13 09:13:02;;;;;;;46.33;28.20;;;;;;;9.26;70.50;102754.27;1707682;83;25824;-62
2022/11/13 09:15:48;;;;;;;53.28;29.55;;;;;;;9.21;70.35;102758.08;1703949;83;25836;-61
2022/11/13 09:18:33;;;;;;;54.80;28.32;;;;;;;9.22;70.72;102755.80;1705319;83;26867;-62
2022/11/13 09:21:19;;;;;;;48.85;27.32;;;;;;;9.28;70.84;102753.23;1676589;85;25825;-61
2022/11/13 09:24:09;;;;;;;53.85;28.45;;;;;;;9.36;70.91;102743.00;1706497;84;29633;-62
2022/11/13 09:26:54;;;;;;;49.88;28.85;;;;;;;9.48;71.11;102750.88;1706383;84;25828;-62
2022/11/13 09:29:41;;;;;;;54.60;30.00;;;;;;;9.59;71.01;102747.63;1706645;84;25793;-62
2022/11/13 09:32:27;;;;;;;53.50;27.27;;;;;;;9.69;70.82;102738.13;1677958;85;26185;-62
2022/11/13 09:35:12;;;;;;;55.92;29.12;;;;;;;9.83;70.36;102743.22;1706474;84;25815;-62
2022/11/13 09:37:57;;;;;;;53.28;28.40;;;;;;;9.94;70.79;102738.14;1676583;85;27496;-62
2022/11/13 09:40:53;;;;;;;47.98;28.00;;;;;;;10.11;70.99;102733.19;1706060;84;25847;-62
2022/11/13 09:43:49;;;;;;;62.23;27.50;;;;;;;10.26;70.75;102732.81;1652923;85;25804;-62
2022/11/13 09:46:45;;;;;;;47.70;28.45;;;;;;;10.42;70.73;102726.10;1674643;85;25867;-62
2022/11/13 09:49:36;;;;;;;61.63;27.27;;;;;;;10.41;69.62;102724.86;1651677;85;25882;-62
2022/11/13 09:52:29;;;;;;;54.45;28.23;;;;;;;10.41;69.51;102720.82;1682210;85;27519;-62
2022/11/13 09:55:23;;;;;;;52.50;28.33;;;;;;;10.39;69.29;102729.45;1680691;84;25766;-62
2022/11/13 09:58:22;;;;;;;52.67;26.93;;;;;;;10.41;69.27;102723.02;1680847;83;25756;-62
2022/11/13 10:01:15;;;;;;;54.75;28.47;;;;;;;10.46;69.33;102721.41;1680600;84;26335;-62
2022/11/13 10:04:04;;;;;;;51.30;27.67;;;;;;;10.62;69.60;102714.19;1680849;84;25845;-62
2022/11/13 10:07:15;;;;;;;39.25;23.95;;;;;;;10.73;68.60;102718.97;1680554;85;27484;-62
2022/11/13 10:10:34;;;;;;;37.20;23.75;;;;;;;10.72;68.98;102715.00;1680522;85;25731;-62
2022/11/13 10:13:33;;;;;;;41.53;23.60;;;;;;;10.72;69.14;102707.81;1688817;84;25800;-62
2022/11/13 10:16:52;;;;;;;42.03;24.52;;;;;;;10.74;68.77;102710.41;1692536;84;26092;-62
2022/11/13 10:19:58;;;;;;;43.42;25.30;;;;;;;10.70;68.48;102709.72;1685139;84;25819;-61
2022/11/13 10:23:10;;;;;;;47.43;29.65;;;;;;;10.59;68.53;102715.73;1694846;84;27528;-62
2022/11/13 10:25:59;;;;;;;41.73;26.05;;;;;;;10.53;69.10;102709.83;1646018;86;25858;-62
2022/11/13 10:28:44;;;;;;;51.18;29.27;;;;;;;10.48;69.16;102707.40;1724962;83;25521;-62
2022/11/13 10:31:44;;;;;;;40.90;25.15;;;;;;;10.54;68.85;102708.88;1724733;83;26173;-61
2022/11/13 10:34:29;;;;;;;41.37;24.00;;;;;;;10.53;68.89;102701.30;1725226;83;25697;-61
2022/11/13 10:37:41;;;;;;;44.90;24.23;;;;;;;10.47;69.01;102698.94;1717137;83;27531;-62
2022/11/13 10:40:36;;;;;;;39.13;23.75;;;;;;;10.47;69.47;102698.94;1724663;82;26104;-62
2022/11/13 10:43:25;;;;;;;36.98;23.73;;;;;;;10.50;69.39;102697.42;1724566;82;25785;-62
2022/11/13 10:46:20;;;;;;;45.28;23.12;;;;;;;10.46;69.08;102697.20;1724711;83;26167;-61
2022/11/13 10:49:21;;;;;;;42.43;24.00;;;;;;;10.42;69.12;102697.00;1721319;83;25536;-62
2022/11/13 10:52:26;;;;;;;40.43;24.35;;;;;;;10.35;69.04;102700.48;1714127;83;27475;-62
2022/11/13 10:55:35;;;;;;;40.98;25.25;;;;;;;10.31;68.61;102688.14;1685882;84;25810;-61
2022/11/13 10:58:21;;;;;;;41.15;24.52;;;;;;;10.28;68.71;102692.38;1685648;85;25881;-62
2022/11/13 11:01:25;;;;;;;46.92;25.92;;;;;;;10.27;68.62;102687.94;1686095;84;26120;-62
2022/11/13 11:04:30;;;;;;;45.23;24.95;;;;;;;10.30;68.76;102691.33;1686062;85;25832;-62
2022/11/13 11:07:20;;;;;;;46.37;26.00;;;;;;;10.34;69.07;102681.25;1686075;84;28309;-62
2022/11/13 11:12:14;;;;;;;41.60;24.80;;;;;;;10.43;69.21;102679.41;1685884;84;25794;-61
2022/11/13 11:13:25;;;;;;;43.02;25.62;;;;;;;10.60;68.49;102670.37;1676142;84;25734;-62
2022/11/13 11:16:21;;;;;;;35.75;22.22;;;;;;;10.67;68.33;102667.31;1678369;85;26106;-61
2022/11/13 11:19:10;;;;;;;45.63;23.62;;;;;;;10.69;68.41;102666.25;1711158;82;25830;-62
2022/11/13 11:22:15;;;;;;;52.15;30.08;;;;;;;10.73;68.04;102668.28;1734979;82;27524;-62
2022/11/13 11:25:15;;;;;;;44.90;25.27;;;;;;;10.75;67.73;102664.57;1691414;83;25825;-63
2022/11/13 11:28:05;;;;;;;34.05;21.25;;;;;;;10.75;67.43;102670.41;1698848;84;25767;-62
2022/11/13 11:31:11;;;;;;;37.67;24.05;;;;;;;10.78;67.49;102660.82;1729910;82;26111;-62
2022/11/13 11:34:12;;;;;;;41.25;24.67;;;;;;;10.78;67.50;102654.94;1735207;82;25723;-62
2022/11/13 11:37:15;;;;;;;41.68;25.02;;;;;;;10.75;67.63;102664.57;1698886;84;28511;-62
2022/11/13 11:40:17;;;;;;;40.05;24.75;;;;;;;10.69;67.47;102654.64;1700600;84;25760;-61
2022/11/13 11:43:24;;;;;;;43.58;26.17;;;;;;;10.73;67.50;102650.78;1734834;82;25862;-62
2022/11/13 11:46:12;;;;;;;46.73;26.10;;;;;;;10.69;67.35;102637.14;1735291;82;26109;-62
2022/11/13 11:49:00;;;;;;;43.70;25.30;;;;;;;10.69;67.49;102639.83;1724165;82;25827;-62
2022/11/13 11:52:15;;;;;;;45.90;25.17;;;;;;;10.64;67.40;102632.88;1692604;84;28360;-62
2022/11/13 11:55:40;;;;;;;44.83;25.32;;;;;;;10.61;67.68;102637.13;1659289;83;25553;-63
2022/11/13 11:59:04;;;;;;;48.50;26.23;;;;;;;10.65;67.95;102631.08;1709658;83;25823;-62
2022/11/13 12:02:11;;;;;;;37.93;24.43;;;;;;;10.66;67.90;102632.81;1709462;83;26120;-62
2022/11/13 12:05:25;;;;;;;42.75;25.23;;;;;;;10.69;67.55;102627.72;1709511;82;25762;-62
2022/11/13 12:08:25;;;;;;;40.70;25.43;;;;;;;10.63;67.69;102632.98;1707001;83;27652;-62
2022/11/13 12:11:33;;;;;;;38.70;23.67;;;;;;;10.61;67.66;102641.16;1697654;83;25776;-62
2022/11/13 12:14:44;;;;;;;44.35;24.55;;;;;;;10.57;67.75;102626.63;1699402;83;25862;-62
2022/11/13 12:17:58;;;;;;;44.65;25.45;;;;;;;10.52;67.74;102625.55;1696914;84;25699;-62
2022/11/13 12:21:09;;;;;;;39.33;24.12;;;;;;;10.54;67.88;102625.45;1697130;83;25825;-62
2022/11/13 12:24:21;;;;;;;38.73;24.25;;;;;;;10.53;67.83;102627.75;1697061;84;27712;-62
2022/11/13 12:27:20;;;;;;;38.92;24.57;;;;;;;10.53;67.84;102623.25;1696909;84;25723;-62
2022/11/13 12:30:19;;;;;;;47.43;25.32;;;;;;;10.47;67.59;102620.91;1694792;83;25754;-61
2022/11/13 12:33:34;;;;;;;40.03;24.18;;;;;;;10.45;67.41;102622.81;1696797;84;26173;-62
2022/11/13 12:36:22;;;;;;;46.28;25.65;;;;;;;10.38;67.70;102620.98;1697205;84;25742;-63
2022/11/13 12:39:56;;;;;;;40.03;23.85;;;;;;;10.37;67.88;102626.39;1696696;84;27488;-63
2022/11/13 12:43:02;;;;;;;40.52;25.37;;;;;;;10.36;67.97;102622.85;1697042;84;25835;-62
2022/11/13 12:46:01;;;;;;;39.92;22.87;;;;;;;10.40;68.18;102627.11;1697141;83;25727;-62
2022/11/13 12:48:47;;;;;;;38.35;23.15;;;;;;;10.46;68.16;102624.09;1696822;84;26093;-62
2022/11/13 12:51:46;;;;;;;38.58;23.12;;;;;;;10.48;68.20;102615.45;1697059;84;26229;-62
2022/11/13 12:54:35;;;;;;;40.45;22.42;;;;;;;10.51;67.49;102618.44;1700737;84;27486;-62
2022/11/13 12:57:27;;;;;;;46.15;23.60;;;;;;;10.51;67.35;102617.09;1701523;84;25732;-62
2022/11/13 13:00:34;;;;;;;38.85;23.65;;;;;;;10.49;67.45;102613.61;1673590;85;25878;-61
2022/11/13 13:03:39;;;;;;;36.88;25.15;;;;;;;10.49;67.34;102616.30;1701851;84;26135;-62